createdAt,value
2023-05-06T00:01:22.140Z,5.00
2023-05-06T00:03:49.251Z,4.60
2023-05-06T00:06:16.461Z,4.72
2023-05-06T00:08:43.413Z,4.68
2023-05-06T00:11:10.434Z,4.47
2023-05-06T00:13:38.069Z,4.35
2023-05-06T00:16:05.483Z,4.45
2023-05-06T00:18:32.515Z,4.55
2023-05-06T00:20:59.594Z,5.40
2023-05-06T00:23:26.493Z,3.90
2023-05-06T00:25:56.571Z,4.53
2023-05-06T00:28:23.527Z,4.30
2023-05-06T00:30:50.407Z,4.45
2023-05-06T00:33:17.286Z,5.22
2023-05-06T00:35:44.329Z,4.40
2023-05-06T00:38:13.502Z,4.53
2023-05-06T00:40:40.652Z,4.53
2023-05-06T00:43:07.736Z,4.35
2023-05-06T00:45:35.247Z,4.22
2023-05-06T00:48:04.292Z,4.70
2023-05-06T00:50:33.281Z,4.80
2023-05-06T00:53:03.620Z,4.63
2023-05-06T00:55:31.265Z,4.43
2023-05-06T00:57:58.551Z,4.60
2023-05-06T01:00:26.353Z,5.05
2023-05-06T01:02:54.228Z,4.93
2023-05-06T01:05:23.833Z,5.38
2023-05-06T01:08:02.271Z,4.85
2023-05-06T01:10:35.669Z,5.25
2023-05-06T01:13:42.784Z,5.05
2023-05-06T01:16:12.767Z,5.13
2023-05-06T01:18:41.103Z,4.43
2023-05-06T01:21:09.387Z,5.63
2023-05-06T01:23:56.102Z,4.88
2023-05-06T01:26:23.551Z,5.07
2023-05-06T01:28:50.744Z,5.10
2023-05-06T01:31:27.114Z,5.13
2023-05-06T01:34:08.922Z,5.07
2023-05-06T01:36:48.343Z,5.60
2023-05-06T01:39:20.472Z,6.22
2023-05-06T01:41:49.538Z,5.63
2023-05-06T01:44:17.492Z,5.03
2023-05-06T01:46:45.936Z,5.57
2023-05-06T01:49:16.947Z,5.00
2023-05-06T01:51:51.406Z,5.43
2023-05-06T01:56:45.468Z,5.47
2023-05-06T01:59:12.578Z,5.32
2023-05-06T02:01:39.523Z,6.45
2023-05-06T02:04:06.549Z,6.20
2023-05-06T02:06:33.674Z,5.07
2023-05-06T02:09:04.207Z,5.28
2023-05-06T02:11:31.165Z,6.25
2023-05-06T02:13:58.400Z,5.65
2023-05-06T02:16:28.662Z,5.25
2023-05-06T02:18:55.726Z,9.60
2023-05-06T02:21:23.289Z,5.40
2023-05-06T02:23:50.760Z,5.85
2023-05-06T02:26:17.813Z,5.93
2023-05-06T02:28:44.757Z,5.53
2023-05-06T02:31:17.836Z,5.95
2023-05-06T02:33:45.728Z,5.68
2023-05-06T02:36:12.659Z,5.93
2023-05-06T02:38:39.533Z,6.30
2023-05-06T02:41:06.487Z,5.80
2023-05-06T02:43:33.461Z,5.68
2023-05-06T02:46:01.970Z,5.22
2023-05-06T02:48:28.973Z,5.50
2023-05-06T02:50:55.929Z,5.20
2023-05-06T02:53:22.869Z,4.80
2023-05-06T02:55:49.755Z,4.78
2023-05-06T02:58:16.655Z,4.93
2023-05-06T03:00:43.732Z,4.25
2023-05-06T03:03:10.670Z,4.35
2023-05-06T03:05:37.585Z,4.50
2023-05-06T03:08:04.782Z,5.05
2023-05-06T03:10:31.701Z,4.63
2023-05-06T03:12:58.654Z,4.60
2023-05-06T03:15:26.201Z,4.95
2023-05-06T03:17:53.305Z,4.85
2023-05-06T03:20:21.612Z,5.30
2023-05-06T03:22:48.718Z,5.38
2023-05-06T03:25:15.768Z,5.40
2023-05-06T03:27:42.775Z,5.05
2023-05-06T03:30:10.655Z,5.05
2023-05-06T03:32:38.647Z,5.70
2023-05-06T03:35:06.918Z,4.68
2023-05-06T03:37:34.047Z,4.35
2023-05-06T03:40:04.029Z,4.03
2023-05-06T03:42:31.352Z,3.97
2023-05-06T03:44:58.381Z,3.60
2023-05-06T03:47:25.452Z,3.30
2023-05-06T03:49:52.654Z,2.92
2023-05-06T03:52:19.643Z,2.88
2023-05-06T03:54:46.572Z,3.20
2023-05-06T03:57:13.568Z,3.10
2023-05-06T03:59:40.582Z,2.90
2023-05-06T04:02:07.835Z,2.85
2023-05-06T04:04:34.962Z,2.85
2023-05-06T04:07:02.388Z,2.67
2023-05-06T04:09:29.443Z,2.90
2023-05-06T04:11:57.184Z,3.00
2023-05-06T04:14:24.246Z,3.33
2023-05-06T04:16:51.269Z,3.20
2023-05-06T04:19:18.335Z,3.50
2023-05-06T04:21:45.493Z,3.85
2023-05-06T04:24:13.797Z,3.60
2023-05-06T04:26:40.832Z,3.60
2023-05-06T04:29:08.035Z,3.20
2023-05-06T04:31:37.060Z,3.50
2023-05-06T04:34:04.443Z,2.95
2023-05-06T04:36:31.362Z,2.85
2023-05-06T04:38:58.517Z,3.20
2023-05-06T04:41:26.077Z,3.10
2023-05-06T04:43:53.052Z,3.22
2023-05-06T04:46:21.084Z,3.80
2023-05-06T04:48:48.175Z,3.80
2023-05-06T04:51:15.310Z,4.30
2023-05-06T04:53:42.411Z,3.90
2023-05-06T04:56:09.585Z,3.70
2023-05-06T04:58:36.704Z,4.05
2023-05-06T05:01:05.830Z,3.63
2023-05-06T05:03:33.178Z,4.05
2023-05-06T05:06:00.339Z,4.05
2023-05-06T05:08:27.736Z,4.80
2023-05-06T05:10:54.772Z,4.22
2023-05-06T05:13:21.894Z,4.43
2023-05-06T05:15:48.954Z,4.75
2023-05-06T05:18:15.885Z,4.90
2023-05-06T05:20:42.897Z,4.43
2023-05-06T05:23:09.906Z,4.13
2023-05-06T05:25:37.159Z,4.60
2023-05-06T05:28:04.582Z,4.45
2023-05-06T05:30:31.566Z,5.15
2023-05-06T05:32:58.610Z,3.92
2023-05-06T05:35:25.901Z,4.07
2023-05-06T05:37:52.873Z,3.75
2023-05-06T05:40:19.955Z,6.68
2023-05-06T05:42:46.985Z,21.15
2023-05-06T05:45:13.898Z,6.45
2023-05-06T05:47:40.909Z,4.20
2023-05-06T05:50:08.552Z,3.92
2023-05-06T05:52:35.567Z,4.13
2023-05-06T05:55:02.696Z,4.10
2023-05-06T05:57:29.731Z,4.10
2023-05-06T05:59:56.721Z,4.10
2023-05-06T06:02:23.875Z,3.67
2023-05-06T06:04:51.065Z,3.95
2023-05-06T06:07:18.063Z,3.80
2023-05-06T06:09:46.903Z,4.00
2023-05-06T06:12:15.551Z,4.30
2023-05-06T06:14:47.829Z,4.00
2023-05-06T06:17:15.716Z,3.63
2023-05-06T06:19:43.250Z,3.95
2023-05-06T06:22:10.190Z,4.03
2023-05-06T06:24:37.123Z,4.25
2023-05-06T06:27:04.052Z,3.67
2023-05-06T06:29:31.338Z,3.67
2023-05-06T06:31:59.117Z,3.60
2023-05-06T06:34:26.050Z,3.65
2023-05-06T06:36:53.018Z,3.92
2023-05-06T06:39:20.075Z,3.70
2023-05-06T06:41:47.146Z,4.15
2023-05-06T06:44:14.427Z,4.30
2023-05-06T06:46:41.734Z,5.70
2023-05-06T06:49:08.702Z,4.60
2023-05-06T06:51:35.715Z,5.22
2023-05-06T06:54:03.186Z,4.90
2023-05-06T06:56:30.821Z,4.25
2023-05-06T06:58:57.767Z,4.13
2023-05-06T07:01:25.028Z,5.55
2023-05-06T07:03:52.009Z,6.70
2023-05-06T07:06:19.134Z,8.00
2023-05-06T07:08:46.144Z,6.30
2023-05-06T07:11:14.619Z,4.80
2023-05-06T07:13:41.667Z,4.57
2023-05-06T07:16:09.017Z,4.57
2023-05-06T07:18:36.029Z,5.10
2023-05-06T07:21:03.031Z,5.15
2023-05-06T07:23:32.767Z,4.25
2023-05-06T07:26:04.140Z,4.82
2023-05-06T07:28:32.099Z,4.43
2023-05-06T07:30:59.037Z,4.68
2023-05-06T07:33:26.092Z,4.60
2023-05-06T07:35:54.696Z,4.53
2023-05-06T07:38:24.806Z,5.57
2023-05-06T07:40:51.811Z,4.93
2023-05-06T07:43:19.081Z,5.05
2023-05-06T07:45:46.287Z,4.72
2023-05-06T07:48:13.216Z,4.15
2023-05-06T07:50:40.111Z,4.00
2023-05-06T07:53:07.162Z,3.45
2023-05-06T07:55:35.187Z,3.97
2023-05-06T07:58:02.269Z,3.70
2023-05-06T08:00:29.137Z,3.33
2023-05-06T08:02:56.350Z,2.97
2023-05-06T08:05:23.412Z,3.33
2023-05-06T08:07:50.494Z,3.08
2023-05-06T08:10:17.699Z,3.13
2023-05-06T08:12:44.639Z,2.72
2023-05-06T08:15:12.351Z,2.95
2023-05-06T08:17:40.133Z,2.35
2023-05-06T08:20:08.171Z,2.83
2023-05-06T08:22:35.128Z,2.28
2023-05-06T08:25:02.370Z,2.88
2023-05-06T08:27:29.170Z,2.40
2023-05-06T08:29:56.112Z,1.92
2023-05-06T08:32:23.165Z,2.03
2023-05-06T08:34:50.112Z,1.90
2023-05-06T08:37:17.049Z,1.77
2023-05-06T08:39:45.571Z,1.58
2023-05-06T08:42:12.786Z,1.50
2023-05-06T08:44:39.945Z,1.30
2023-05-06T08:47:06.964Z,1.73
2023-05-06T08:49:34.410Z,1.70
2023-05-06T08:52:04.606Z,1.17
2023-05-06T08:54:35.555Z,1.23
2023-05-06T08:57:05.414Z,1.27
2023-05-06T08:59:33.868Z,1.92
2023-05-06T09:02:02.493Z,1.85
2023-05-06T09:04:30.104Z,2.10
2023-05-06T09:06:58.793Z,1.55
2023-05-06T09:09:26.412Z,1.50
2023-05-06T09:11:57.845Z,1.33
2023-05-06T09:14:25.091Z,1.23
2023-05-06T09:16:53.286Z,1.05
2023-05-06T09:19:21.852Z,1.30
2023-05-06T09:21:50.916Z,1.40
2023-05-06T09:24:18.747Z,1.35
2023-05-06T09:26:47.208Z,1.25
2023-05-06T09:29:14.427Z,1.10
2023-05-06T09:31:43.421Z,1.40
2023-05-06T09:34:11.291Z,1.20
2023-05-06T09:36:38.543Z,1.08
2023-05-06T09:39:06.282Z,0.93
2023-05-06T09:41:33.451Z,1.10
2023-05-06T09:44:01.150Z,1.00
2023-05-06T09:46:28.302Z,0.95
2023-05-06T09:48:57.808Z,0.93
2023-05-06T09:51:27.786Z,1.10
2023-05-06T09:53:56.854Z,0.80
2023-05-06T09:56:24.973Z,0.95
2023-05-06T09:58:52.811Z,0.90
2023-05-06T10:01:32.717Z,0.93
2023-05-06T10:04:06.471Z,0.93
2023-05-06T10:06:36.877Z,0.95
2023-05-06T10:09:06.501Z,0.90
2023-05-06T10:11:34.154Z,0.73
2023-05-06T10:14:02.479Z,0.80
2023-05-06T10:16:29.779Z,0.63
2023-05-06T10:18:58.214Z,0.90
2023-05-06T10:21:32.420Z,0.70
2023-05-06T10:24:08.985Z,0.70
2023-05-06T10:26:38.166Z,0.80
2023-05-06T10:29:09.301Z,0.70
2023-05-06T10:31:43.945Z,0.68
2023-05-06T10:34:11.039Z,0.80
2023-05-06T10:36:39.412Z,0.63
2023-05-06T10:39:10.208Z,0.60
2023-05-06T10:41:37.881Z,0.70
2023-05-06T10:44:06.121Z,0.70
2023-05-06T10:47:02.334Z,0.75
2023-05-06T10:49:29.403Z,0.80
2023-05-06T10:52:12.134Z,0.65
2023-05-06T10:54:50.852Z,0.63
2023-05-06T10:57:18.560Z,0.60
2023-05-06T10:59:49.252Z,0.85
2023-05-06T11:02:20.459Z,0.60
2023-05-06T11:04:52.725Z,1.27
2023-05-06T11:07:24.326Z,0.60
2023-05-06T11:10:02.110Z,0.70
2023-05-06T11:12:44.549Z,0.90
2023-05-06T11:15:36.275Z,0.70
2023-05-06T11:18:34.014Z,0.75
2023-05-06T11:21:01.070Z,0.88
2023-05-06T11:23:49.631Z,0.70
2023-05-06T11:26:16.822Z,0.88
2023-05-06T11:28:47.947Z,0.60
2023-05-06T11:31:16.212Z,0.75
2023-05-06T11:33:52.504Z,0.90
2023-05-06T11:36:21.024Z,0.60
2023-05-06T11:38:51.299Z,0.80
2023-05-06T11:41:19.257Z,0.50
2023-05-06T11:43:50.219Z,0.63
2023-05-06T11:46:20.103Z,0.60
2023-05-06T11:48:47.267Z,0.60
2023-05-06T11:51:15.016Z,0.50
2023-05-06T11:53:42.154Z,1.02
2023-05-06T11:56:09.196Z,0.52
2023-05-06T11:58:36.315Z,0.50
2023-05-06T12:01:04.493Z,0.70
2023-05-06T12:03:33.194Z,0.60
2023-05-06T12:06:01.439Z,0.60
2023-05-06T12:08:34.660Z,0.65
2023-05-06T12:11:06.245Z,0.47
2023-05-06T12:13:36.849Z,0.50
2023-05-06T12:16:05.225Z,0.63
2023-05-06T12:18:32.867Z,1.10
2023-05-06T12:21:02.777Z,1.00
2023-05-06T12:23:30.124Z,0.77
2023-05-06T12:26:04.938Z,0.70
2023-05-06T12:28:33.205Z,0.70
2023-05-06T12:31:01.294Z,0.60
2023-05-06T12:33:28.555Z,0.50
2023-05-06T12:36:07.437Z,0.60
2023-05-06T12:38:34.726Z,0.60
2023-05-06T12:41:01.888Z,0.60
2023-05-06T12:43:31.048Z,0.70
2023-05-06T12:46:09.020Z,0.68
2023-05-06T12:48:36.121Z,0.60
2023-05-06T12:51:19.228Z,0.80
2023-05-06T12:53:46.473Z,0.50
2023-05-06T12:56:14.214Z,0.70
2023-05-06T12:58:41.437Z,0.82
2023-05-06T13:01:08.741Z,0.68
2023-05-06T13:03:38.274Z,0.80
2023-05-06T13:06:05.995Z,0.70
2023-05-06T13:08:33.911Z,0.77
2023-05-06T13:11:02.479Z,0.93
2023-05-06T13:13:29.618Z,0.80
2023-05-06T13:15:57.087Z,0.80
2023-05-06T13:18:24.003Z,0.63
2023-05-06T13:20:51.765Z,1.13
2023-05-06T13:23:19.587Z,0.88
2023-05-06T13:26:02.869Z,0.80
2023-05-06T13:28:32.298Z,0.90
2023-05-06T13:30:59.460Z,0.60
2023-05-06T13:33:26.607Z,0.88
2023-05-06T13:35:53.640Z,0.80
2023-05-06T13:38:21.056Z,1.48
2023-05-06T13:40:52.229Z,0.73
2023-05-06T13:43:26.042Z,0.60
2023-05-06T13:45:53.482Z,0.88
2023-05-06T13:48:20.435Z,1.20
2023-05-06T13:50:47.648Z,0.75
2023-05-06T13:53:15.405Z,0.90
2023-05-06T13:55:43.852Z,0.60
2023-05-06T13:58:11.111Z,0.63
2023-05-06T14:00:38.202Z,0.70
2023-05-06T14:03:05.339Z,0.70
2023-05-06T14:05:32.740Z,0.73
2023-05-06T14:07:59.755Z,0.70
2023-05-06T14:10:26.958Z,0.65
2023-05-06T14:12:54.101Z,0.82
2023-05-06T14:15:21.251Z,0.70
2023-05-06T14:17:48.189Z,0.70
2023-05-06T14:20:15.288Z,0.80
2023-05-06T14:22:42.531Z,0.73
2023-05-06T14:25:10.096Z,0.70
2023-05-06T14:27:37.425Z,0.60
2023-05-06T14:30:08.231Z,0.73
2023-05-06T14:32:36.425Z,1.10
2023-05-06T14:35:03.757Z,0.73
2023-05-06T14:37:30.731Z,0.75
2023-05-06T14:39:57.793Z,0.63
2023-05-06T14:42:24.713Z,0.60
2023-05-06T14:44:51.584Z,0.80
2023-05-06T14:47:19.003Z,0.68
2023-05-06T14:49:46.117Z,1.00
2023-05-06T14:52:13.086Z,0.90
2023-05-06T14:54:43.047Z,0.70
2023-05-06T14:57:10.521Z,0.77
2023-05-06T14:59:38.485Z,0.60
2023-05-06T15:02:09.830Z,0.77
2023-05-06T15:04:37.104Z,0.70
2023-05-06T15:07:04.452Z,0.70
2023-05-06T15:09:31.677Z,0.82
2023-05-06T15:11:58.760Z,0.80
2023-05-06T15:14:26.047Z,0.70
2023-05-06T15:16:57.048Z,0.70
2023-05-06T15:19:24.502Z,0.80
2023-05-06T15:21:51.677Z,1.00
2023-05-06T15:24:18.595Z,0.75
2023-05-06T15:26:45.940Z,0.80
2023-05-06T15:29:13.162Z,0.80
2023-05-06T15:31:41.140Z,0.90
2023-05-06T15:34:10.713Z,0.80
2023-05-06T15:36:38.851Z,0.80
2023-05-06T15:39:05.885Z,0.75
2023-05-06T15:41:34.288Z,0.80
2023-05-06T15:44:02.764Z,0.77
2023-05-06T15:46:31.592Z,0.77
2023-05-06T15:49:21.013Z,0.63
2023-05-06T15:51:46.823Z,0.90
2023-05-06T15:54:18.209Z,0.73
2023-05-06T15:56:46.124Z,1.50
2023-05-06T15:59:13.045Z,0.80
2023-05-06T16:04:10.184Z,0.90
2023-05-06T16:06:37.352Z,1.33
2023-05-06T16:09:04.323Z,0.70
2023-05-06T16:11:31.595Z,0.80
2023-05-06T16:13:58.674Z,0.90
2023-05-06T16:16:25.903Z,0.68
2023-05-06T16:18:52.939Z,0.70
2023-05-06T16:21:20.001Z,0.77
2023-05-06T16:23:47.020Z,0.93
2023-05-06T16:26:14.900Z,0.98
2023-05-06T16:28:41.842Z,1.10
2023-05-06T16:31:09.017Z,0.73
2023-05-06T16:33:36.191Z,0.80
2023-05-06T16:36:03.581Z,0.80
2023-05-06T16:38:30.824Z,0.77
2023-05-06T16:40:57.809Z,1.17
2023-05-06T16:43:24.761Z,0.77
2023-05-06T16:45:51.890Z,0.90
2023-05-06T16:48:18.980Z,0.90
2023-05-06T16:50:46.293Z,0.93
2023-05-06T16:53:13.531Z,1.05
2023-05-06T16:55:40.528Z,1.45
2023-05-06T16:58:07.410Z,0.80
2023-05-06T17:00:34.449Z,0.85
2023-05-06T17:03:01.741Z,1.00
2023-05-06T17:05:31.021Z,1.42
2023-05-06T17:10:29.266Z,0.90
2023-05-06T17:12:57.371Z,1.13
2023-05-06T17:15:25.031Z,0.90
2023-05-06T17:17:52.338Z,1.02
2023-05-06T17:20:23.022Z,1.23
2023-05-06T17:22:50.242Z,0.80
2023-05-06T17:25:17.637Z,0.80
2023-05-06T17:27:45.085Z,1.00
2023-05-06T17:30:12.727Z,1.00
2023-05-06T17:32:40.218Z,1.10
2023-05-06T17:35:07.968Z,1.00
2023-05-06T17:37:35.078Z,1.10
2023-05-06T17:40:02.997Z,1.30
2023-05-06T17:42:30.814Z,1.02
2023-05-06T17:44:57.832Z,1.33
2023-05-06T17:47:24.943Z,1.10
2023-05-06T17:49:55.053Z,1.08
2023-05-06T17:52:23.740Z,1.33
2023-05-06T17:55:05.747Z,1.05
2023-05-06T17:57:38.099Z,1.30
2023-05-06T18:00:07.384Z,1.20
2023-05-06T18:02:34.695Z,1.10
2023-05-06T18:05:02.190Z,0.90
2023-05-06T18:07:29.840Z,1.10
2023-05-06T18:09:56.816Z,1.10
2023-05-06T18:12:24.009Z,1.00
2023-05-06T18:14:51.047Z,1.30
2023-05-06T18:17:18.140Z,1.00
2023-05-06T18:19:45.194Z,1.30
2023-05-06T18:22:12.373Z,1.27
2023-05-06T18:24:39.609Z,1.17
2023-05-06T18:27:06.867Z,1.20
2023-05-06T18:29:35.128Z,1.30
2023-05-06T18:32:02.410Z,1.00
2023-05-06T18:34:29.636Z,1.10
2023-05-06T18:36:58.278Z,1.08
2023-05-06T18:39:26.004Z,1.35
2023-05-06T18:41:53.209Z,1.05
2023-05-06T18:44:20.533Z,1.33
2023-05-06T18:46:47.907Z,1.27
2023-05-06T18:49:15.066Z,1.30
2023-05-06T18:51:42.256Z,1.33
2023-05-06T18:54:09.444Z,1.40
2023-05-06T18:56:37.499Z,1.33
2023-05-06T18:59:04.786Z,1.52
2023-05-06T19:01:32.038Z,1.60
2023-05-06T19:03:59.630Z,1.50
2023-05-06T19:06:26.785Z,1.60
2023-05-06T19:08:54.210Z,1.50
2023-05-06T19:11:21.716Z,1.40
2023-05-06T19:13:50.529Z,1.20
2023-05-06T19:16:17.858Z,1.20
2023-05-06T19:18:45.122Z,1.30
2023-05-06T19:21:12.760Z,1.50
2023-05-06T19:23:39.992Z,1.50
2023-05-06T19:26:09.932Z,1.30
2023-05-06T19:28:37.172Z,1.23
2023-05-06T19:31:11.467Z,1.60
2023-05-06T19:33:39.553Z,1.50
2023-05-06T19:36:06.976Z,1.65
2023-05-06T19:38:34.688Z,2.03
2023-05-06T19:41:02.138Z,1.80
2023-05-06T19:43:29.278Z,1.98
2023-05-06T19:45:56.496Z,1.92
2023-05-06T19:48:24.078Z,2.10
2023-05-06T19:50:53.969Z,1.98
2023-05-06T19:53:22.857Z,1.85
2023-05-06T19:55:50.102Z,1.90
2023-05-06T19:58:18.932Z,1.90
2023-05-06T20:00:46.367Z,2.15
2023-05-06T20:03:14.085Z,2.22
2023-05-06T20:05:42.144Z,2.20
2023-05-06T20:08:11.297Z,2.00
2023-05-06T20:10:38.825Z,2.33
2023-05-06T20:13:06.993Z,2.05
2023-05-06T20:15:35.465Z,1.80
2023-05-06T20:18:02.723Z,1.90
2023-05-06T20:20:34.388Z,1.60
2023-05-06T20:23:02.250Z,2.00
2023-05-06T20:25:29.565Z,1.80
2023-05-06T20:27:56.909Z,1.60
2023-05-06T20:30:24.014Z,1.60
2023-05-06T20:32:52.067Z,1.80
2023-05-06T20:35:19.464Z,2.00
2023-05-06T20:37:46.972Z,1.55
2023-05-06T20:40:15.343Z,1.70
2023-05-06T20:42:42.552Z,1.33
2023-05-06T20:45:10.192Z,1.88
2023-05-06T20:47:37.675Z,1.52
2023-05-06T20:50:05.274Z,1.70
2023-05-06T20:52:34.027Z,1.70
2023-05-06T20:55:01.912Z,1.85
2023-05-06T20:57:29.339Z,2.90
2023-05-06T20:59:56.653Z,2.38
2023-05-06T21:02:24.069Z,2.63
2023-05-06T21:04:51.937Z,2.40
2023-05-06T21:07:19.010Z,2.75
2023-05-06T21:09:46.388Z,2.83
2023-05-06T21:12:13.980Z,2.50
2023-05-06T21:14:41.135Z,2.30
2023-05-06T21:17:08.541Z,2.45
2023-05-06T21:19:35.765Z,2.83
2023-05-06T21:22:03.046Z,2.40
2023-05-06T21:24:31.215Z,2.40
2023-05-06T21:26:58.475Z,2.20
2023-05-06T21:29:25.769Z,2.30
2023-05-06T21:31:52.921Z,2.35
2023-05-06T21:34:23.215Z,2.50
2023-05-06T21:36:50.419Z,2.53
2023-05-06T21:39:17.580Z,2.53
2023-05-06T21:41:44.733Z,2.40
2023-05-06T21:44:12.033Z,2.47
2023-05-06T21:46:39.365Z,2.50
2023-05-06T21:49:06.508Z,3.10
2023-05-06T21:51:35.012Z,2.58
2023-05-06T21:54:03.226Z,2.20
2023-05-06T21:56:30.506Z,2.20
2023-05-06T21:58:57.803Z,2.15
2023-05-06T22:01:29.301Z,2.20
2023-05-06T22:03:56.628Z,2.20
2023-05-06T22:06:24.076Z,2.33
2023-05-06T22:08:51.524Z,2.10
2023-05-06T22:11:18.726Z,2.22
2023-05-06T22:13:45.854Z,3.00
2023-05-06T22:16:13.289Z,2.80
2023-05-06T22:18:41.847Z,2.72
2023-05-06T22:21:09.908Z,2.78
2023-05-06T22:23:37.800Z,2.80
2023-05-06T22:26:04.925Z,3.00
2023-05-06T22:28:32.178Z,2.70
2023-05-06T22:30:59.298Z,3.00
2023-05-06T22:33:27.163Z,2.78
2023-05-06T22:35:55.704Z,2.70
2023-05-06T22:38:22.760Z,2.70
2023-05-06T22:40:49.929Z,2.58
2023-05-06T22:43:17.242Z,2.50
2023-05-06T22:45:44.470Z,2.10
2023-05-06T22:48:11.461Z,2.15
2023-05-06T22:50:38.641Z,2.20
2023-05-06T22:53:14.439Z,2.00
2023-05-06T22:55:42.125Z,2.38
2023-05-06T22:58:08.995Z,2.10
2023-05-06T23:00:35.889Z,2.10
2023-05-06T23:03:03.174Z,2.10
2023-05-06T23:05:30.800Z,1.95
2023-05-06T23:07:57.787Z,2.13
2023-05-06T23:10:24.775Z,2.13
2023-05-06T23:12:52.011Z,1.90
2023-05-06T23:15:18.926Z,2.10
2023-05-06T23:17:45.826Z,1.85
2023-05-06T23:20:12.967Z,1.60
2023-05-06T23:22:40.020Z,2.10
2023-05-06T23:25:09.257Z,1.90
2023-05-06T23:27:39.837Z,1.90
2023-05-06T23:30:08.369Z,2.10
2023-05-06T23:32:35.417Z,1.90
2023-05-06T23:35:02.937Z,1.90
2023-05-06T23:37:29.903Z,2.00
2023-05-06T23:39:58.699Z,1.70
2023-05-06T23:42:26.121Z,1.70
2023-05-06T23:44:53.584Z,1.92
2023-05-06T23:47:20.694Z,1.60
2023-05-06T23:49:47.617Z,1.83
2023-05-06T23:52:14.505Z,2.00
2023-05-06T23:54:41.574Z,1.80
2023-05-06T23:57:08.803Z,1.83
2023-05-06T23:59:35.776Z,1.80
